createdAt,value
2018-07-14T00:00:32.805Z,13.10
2018-07-14T00:03:01.045Z,12.57
2018-07-14T00:05:29.263Z,14.03
2018-07-14T00:07:57.514Z,15.57
2018-07-14T00:10:25.758Z,15.23
2018-07-14T00:12:54.003Z,15.20
2018-07-14T00:15:22.209Z,13.53
2018-07-14T00:17:50.430Z,14.97
2018-07-14T00:20:18.664Z,13.90
2018-07-14T00:22:46.889Z,14.00
2018-07-14T00:25:15.234Z,13.53
2018-07-14T00:27:43.434Z,14.03
2018-07-14T00:30:11.678Z,12.27
2018-07-14T00:32:39.924Z,13.47
2018-07-14T00:35:08.145Z,15.47
2018-07-14T00:37:36.367Z,13.90
2018-07-14T00:40:04.619Z,13.97
2018-07-14T00:42:32.835Z,12.47
2018-07-14T00:45:01.026Z,12.20
2018-07-14T00:47:29.445Z,11.70
2018-07-14T00:49:57.627Z,11.93
2018-07-14T00:52:25.850Z,10.70
2018-07-14T00:54:54.046Z,9.50
2018-07-14T00:57:22.313Z,10.87
2018-07-14T00:59:50.526Z,9.63
2018-07-14T01:02:18.729Z,9.63
2018-07-14T01:04:46.921Z,9.20
2018-07-14T01:07:15.162Z,9.20
2018-07-14T01:09:43.383Z,10.33
2018-07-14T01:12:11.628Z,8.43
2018-07-14T01:14:39.832Z,8.63
2018-07-14T01:17:08.081Z,8.40
2018-07-14T01:19:36.304Z,9.60
2018-07-14T01:22:04.509Z,8.87
2018-07-14T01:24:32.725Z,8.40
2018-07-14T01:27:00.929Z,8.60
2018-07-14T01:29:28.933Z,9.30
2018-07-14T01:31:57.447Z,9.43
2018-07-14T01:34:25.653Z,8.80
2018-07-14T01:36:53.876Z,10.17
2018-07-14T01:39:22.081Z,10.17
2018-07-14T01:41:50.314Z,8.90
2018-07-14T01:44:18.503Z,9.20
2018-07-14T01:46:46.715Z,10.40
2018-07-14T01:49:14.926Z,9.23
2018-07-14T01:51:43.161Z,8.70
2018-07-14T01:54:11.653Z,9.43
2018-07-14T01:56:39.838Z,10.33
2018-07-14T01:59:08.070Z,8.30
2018-07-14T02:01:36.290Z,8.50
2018-07-14T02:04:04.514Z,9.20
2018-07-14T02:06:32.734Z,9.80
2018-07-14T02:09:00.964Z,8.60
2018-07-14T02:11:29.159Z,8.67
2018-07-14T02:13:57.366Z,10.20
2018-07-14T02:16:25.398Z,9.43
2018-07-14T02:18:53.610Z,10.43
2018-07-14T02:21:21.809Z,9.20
2018-07-14T02:23:50.019Z,9.33
2018-07-14T02:26:18.202Z,9.80
2018-07-14T02:28:46.410Z,9.57
2018-07-14T02:31:14.389Z,8.80
2018-07-14T02:33:42.594Z,7.40
2018-07-14T02:36:11.031Z,6.90
2018-07-14T02:38:39.249Z,8.37
2018-07-14T02:41:07.446Z,8.03
2018-07-14T02:43:35.680Z,7.33
2018-07-14T02:46:03.912Z,7.93
2018-07-14T02:48:32.140Z,7.13
2018-07-14T02:51:00.330Z,7.90
2018-07-14T02:53:28.547Z,7.73
2018-07-14T02:55:56.750Z,8.90
2018-07-14T02:58:24.955Z,8.13
2018-07-14T03:00:53.250Z,7.37
2018-07-14T03:03:21.454Z,8.43
2018-07-14T03:05:49.683Z,8.00
2018-07-14T03:08:17.885Z,8.00
2018-07-14T03:10:46.085Z,8.60
2018-07-14T03:13:14.286Z,8.60
2018-07-14T03:15:42.502Z,8.73
2018-07-14T03:18:10.788Z,8.90
2018-07-14T03:20:39.030Z,9.50
2018-07-14T03:23:07.461Z,10.30
2018-07-14T03:25:35.719Z,9.30
2018-07-14T03:28:03.930Z,10.33
2018-07-14T03:30:32.139Z,10.70
2018-07-14T03:33:00.362Z,12.83
2018-07-14T03:35:28.569Z,9.87
2018-07-14T03:37:56.774Z,11.40
2018-07-14T03:40:25.018Z,13.60
2018-07-14T03:42:53.221Z,13.03
2018-07-14T03:45:21.441Z,9.30
2018-07-14T03:47:49.661Z,7.37
2018-07-14T03:50:17.904Z,9.27
2018-07-14T03:52:46.159Z,8.90
2018-07-14T03:55:14.362Z,7.80
2018-07-14T03:57:42.603Z,7.67
2018-07-14T04:00:10.786Z,8.20
2018-07-14T04:02:38.989Z,9.20
2018-07-14T04:05:07.301Z,8.30
2018-07-14T04:07:35.510Z,8.50
2018-07-14T04:10:03.717Z,8.23
2018-07-14T04:12:32.078Z,8.70
2018-07-14T04:15:00.297Z,7.93
2018-07-14T04:17:28.480Z,8.77
2018-07-14T04:19:56.672Z,10.13
2018-07-14T04:22:24.889Z,10.00
2018-07-14T04:24:53.112Z,8.43
2018-07-14T04:27:21.565Z,7.37
2018-07-14T04:29:49.801Z,7.90
2018-07-14T04:32:18.025Z,7.43
2018-07-14T04:34:46.240Z,8.03
2018-07-14T04:37:14.501Z,8.20
2018-07-14T04:39:42.688Z,7.53
2018-07-14T04:42:10.890Z,7.17
2018-07-14T04:44:38.842Z,6.23
2018-07-14T04:47:07.037Z,5.80
2018-07-14T04:49:35.485Z,6.47
2018-07-14T04:52:03.724Z,6.30
2018-07-14T04:54:32.013Z,5.87
2018-07-14T04:57:00.254Z,6.30
2018-07-14T04:59:28.477Z,5.90
2018-07-14T05:01:56.666Z,6.37
2018-07-14T05:04:24.891Z,5.93
2018-07-14T05:06:53.090Z,6.20
2018-07-14T05:09:21.313Z,6.53
2018-07-14T05:11:49.665Z,6.57
2018-07-14T05:14:17.909Z,6.80
2018-07-14T05:16:46.093Z,6.00
2018-07-14T05:19:14.290Z,6.20
2018-07-14T05:21:42.502Z,6.67
2018-07-14T05:24:10.718Z,6.83
2018-07-14T05:26:38.922Z,6.10
2018-07-14T05:29:07.165Z,6.53
2018-07-14T05:31:35.381Z,6.83
2018-07-14T05:34:03.428Z,6.40
2018-07-14T05:36:31.646Z,7.93
2018-07-14T05:38:59.876Z,7.73
2018-07-14T05:41:28.128Z,7.10
2018-07-14T05:43:56.416Z,6.63
2018-07-14T05:46:24.297Z,5.63
2018-07-14T05:48:52.514Z,6.50
2018-07-14T05:51:20.714Z,6.43
2018-07-14T05:53:48.907Z,5.20
2018-07-14T05:56:17.387Z,6.43
2018-07-14T05:58:45.590Z,6.30
2018-07-14T06:01:13.822Z,6.37
2018-07-14T06:03:42.029Z,6.33
2018-07-14T06:06:10.233Z,6.67
2018-07-14T06:08:38.207Z,6.50
2018-07-14T06:11:06.433Z,6.53
2018-07-14T06:13:34.627Z,6.10
2018-07-14T06:16:02.825Z,5.83
2018-07-14T06:18:30.785Z,7.00
2018-07-14T06:20:59.026Z,6.00
2018-07-14T06:23:27.229Z,6.63
2018-07-14T06:25:55.467Z,7.17
2018-07-14T06:28:23.685Z,6.67
2018-07-14T06:30:51.909Z,6.63
2018-07-14T06:33:20.128Z,5.37
2018-07-14T06:35:48.338Z,6.50
2018-07-14T06:38:16.579Z,7.03
2018-07-14T06:40:44.801Z,5.90
2018-07-14T06:43:13.001Z,5.90
2018-07-14T06:45:41.219Z,6.50
2018-07-14T06:48:09.185Z,6.13
2018-07-14T06:50:37.373Z,5.73
2018-07-14T06:53:05.581Z,7.53
2018-07-14T06:55:33.793Z,6.00
2018-07-14T06:58:01.970Z,5.20
2018-07-14T07:00:30.225Z,5.80
2018-07-14T07:02:58.699Z,5.83
2018-07-14T07:05:26.949Z,5.83
2018-07-14T07:07:55.149Z,5.50
2018-07-14T07:10:23.389Z,5.93
2018-07-14T07:12:51.621Z,6.00
2018-07-14T07:15:19.850Z,5.50
2018-07-14T07:17:48.042Z,5.80
2018-07-14T07:20:16.267Z,5.50
2018-07-14T07:22:44.486Z,5.70
2018-07-14T07:25:12.701Z,5.80
2018-07-14T07:27:40.913Z,5.67
2018-07-14T07:30:09.102Z,5.40
2018-07-14T07:32:37.325Z,6.77
2018-07-14T07:35:05.549Z,5.03
2018-07-14T07:37:33.871Z,5.90
2018-07-14T07:40:02.110Z,6.50
2018-07-14T07:42:30.305Z,5.00
2018-07-14T07:44:58.486Z,5.33
2018-07-14T07:47:26.697Z,6.00
2018-07-14T07:49:54.927Z,5.30
2018-07-14T07:52:23.136Z,4.07
2018-07-14T07:54:51.338Z,5.23
2018-07-14T07:57:19.527Z,6.67
2018-07-14T07:59:47.743Z,5.00
2018-07-14T08:02:15.937Z,5.17
2018-07-14T08:04:44.147Z,5.23
2018-07-14T08:07:12.362Z,4.30
2018-07-14T08:09:40.601Z,4.33
2018-07-14T08:12:08.805Z,4.53
2018-07-14T08:14:37.069Z,5.13
2018-07-14T08:17:05.280Z,4.77
2018-07-14T08:19:33.473Z,4.80
2018-07-14T08:22:01.698Z,5.67
2018-07-14T08:24:29.904Z,4.67
2018-07-14T08:26:57.878Z,4.50
2018-07-14T08:29:26.091Z,5.10
2018-07-14T08:31:54.478Z,5.00
2018-07-14T08:34:22.698Z,5.57
2018-07-14T08:36:50.899Z,5.50
2018-07-14T08:39:19.122Z,5.80
2018-07-14T08:41:47.325Z,4.93
2018-07-14T08:44:15.317Z,5.60
2018-07-14T08:46:43.538Z,5.37
2018-07-14T08:49:11.862Z,4.97
2018-07-14T08:51:39.845Z,7.20
2018-07-14T08:54:08.083Z,4.60
2018-07-14T08:56:36.337Z,4.90
2018-07-14T08:59:04.595Z,8.87
2018-07-14T09:01:32.785Z,5.20
2018-07-14T09:04:00.977Z,6.60
2018-07-14T09:06:29.219Z,5.10
2018-07-14T09:08:57.419Z,4.90
2018-07-14T09:11:25.660Z,6.40
2018-07-14T09:13:53.926Z,5.87
2018-07-14T09:16:22.702Z,5.67
2018-07-14T09:18:50.910Z,5.20
2018-07-14T09:21:19.137Z,5.03
2018-07-14T09:23:47.385Z,5.40
2018-07-14T09:26:15.629Z,4.67
2018-07-14T09:28:43.850Z,6.43
2018-07-14T09:31:12.061Z,5.03
2018-07-14T09:33:40.432Z,7.47
2018-07-14T09:36:08.672Z,5.90
2018-07-14T09:38:37.057Z,4.93
2018-07-14T09:41:05.255Z,4.80
2018-07-14T09:43:33.525Z,5.93
2018-07-14T09:46:01.737Z,5.87
2018-07-14T09:48:29.960Z,5.33
2018-07-14T09:50:58.160Z,5.50
2018-07-14T09:53:26.412Z,5.60
2018-07-14T09:55:54.627Z,5.20
2018-07-14T09:58:22.848Z,4.87
2018-07-14T10:00:56.524Z,4.87
2018-07-14T10:03:24.842Z,5.17
2018-07-14T10:05:52.977Z,4.90
2018-07-14T10:08:21.192Z,5.80
2018-07-14T10:10:49.465Z,5.07
2018-07-14T10:13:17.772Z,5.33
2018-07-14T10:15:45.889Z,5.97
2018-07-14T10:18:14.146Z,7.13
2018-07-14T10:20:42.426Z,5.27
2018-07-14T10:23:10.957Z,5.27
2018-07-14T10:25:39.260Z,6.23
2018-07-14T10:28:07.424Z,5.23
2018-07-14T10:30:35.712Z,5.17
2018-07-14T10:33:04.043Z,6.13
2018-07-14T10:35:32.310Z,5.67
2018-07-14T10:38:00.586Z,5.57
2018-07-14T10:40:28.816Z,5.43
2018-07-14T10:42:57.063Z,4.83
2018-07-14T10:45:25.446Z,12.10
2018-07-14T10:47:53.704Z,9.70
2018-07-14T10:50:21.976Z,6.50
2018-07-14T10:52:50.219Z,5.80
2018-07-14T10:55:18.442Z,5.90
2018-07-14T10:57:46.755Z,6.77
2018-07-14T11:00:14.950Z,8.10
2018-07-14T11:02:43.233Z,6.13
2018-07-14T11:05:11.486Z,7.10
2018-07-14T11:07:39.490Z,8.33
2018-07-14T11:10:07.753Z,7.40
2018-07-14T11:12:36.041Z,8.07
2018-07-14T11:15:04.455Z,6.47
2018-07-14T11:17:32.693Z,7.30
2018-07-14T11:20:01.047Z,6.60
2018-07-14T11:22:29.259Z,8.00
2018-07-14T11:24:57.458Z,7.77
2018-07-14T11:27:25.725Z,10.40
2018-07-14T11:29:54.159Z,10.47
2018-07-14T11:32:22.531Z,10.70
2018-07-14T11:34:50.807Z,12.40
2018-07-14T11:37:19.072Z,11.10
2018-07-14T11:39:47.406Z,11.87
2018-07-14T11:42:15.774Z,12.00
2018-07-14T11:44:43.966Z,9.50
2018-07-14T11:47:12.227Z,8.03
2018-07-14T11:49:40.518Z,10.73
2018-07-14T11:52:08.890Z,9.27
2018-07-14T11:54:37.119Z,10.67
2018-07-14T11:57:05.400Z,5.70
2018-07-14T11:59:33.779Z,5.83
2018-07-14T12:02:02.078Z,7.47
2018-07-14T12:04:30.050Z,5.10
2018-07-14T12:06:58.295Z,6.83
2018-07-14T12:09:26.494Z,5.57
2018-07-14T12:11:54.773Z,6.07
2018-07-14T12:14:23.106Z,5.97
2018-07-14T12:16:51.387Z,10.27
2018-07-14T12:19:19.675Z,8.93
2018-07-14T12:21:47.962Z,4.77
2018-07-14T12:24:16.284Z,8.13
2018-07-14T12:26:44.721Z,7.17
2018-07-14T12:29:12.881Z,4.70
2018-07-14T12:31:41.137Z,6.60
2018-07-14T12:34:09.432Z,5.10
2018-07-14T12:36:38.015Z,6.43
2018-07-14T12:39:06.809Z,5.10
2018-07-14T12:41:35.110Z,4.40
2018-07-14T12:44:03.430Z,3.63
2018-07-14T12:46:31.690Z,4.13
2018-07-14T12:48:59.991Z,3.70
2018-07-14T12:51:28.210Z,5.70
2018-07-14T12:53:56.553Z,3.90
2018-07-14T12:56:24.747Z,6.60
2018-07-14T12:58:53.289Z,11.37
2018-07-14T13:01:21.511Z,6.43
2018-07-14T13:03:49.775Z,4.20
2018-07-14T13:06:18.023Z,2.93
2018-07-14T13:08:45.981Z,2.90
2018-07-14T13:11:14.205Z,3.20
2018-07-14T13:13:42.421Z,2.60
2018-07-14T13:16:10.669Z,5.13
2018-07-14T13:18:38.889Z,3.83
2018-07-14T13:21:07.407Z,2.80
2018-07-14T13:23:35.893Z,6.70
2018-07-14T13:26:04.082Z,4.40
2018-07-14T13:28:32.334Z,3.50
2018-07-14T13:31:00.579Z,3.00
2018-07-14T13:33:28.521Z,3.70
2018-07-14T13:35:56.721Z,5.40
2018-07-14T13:38:24.681Z,3.03
2018-07-14T13:40:52.911Z,2.87
2018-07-14T13:43:21.146Z,5.27
2018-07-14T13:45:49.370Z,4.30
2018-07-14T13:48:17.590Z,3.40
2018-07-14T13:50:46.047Z,5.63
2018-07-14T13:53:14.275Z,4.57
2018-07-14T13:55:42.526Z,5.40
2018-07-14T13:58:10.774Z,5.40
2018-07-14T14:00:38.981Z,3.20
2018-07-14T14:03:07.196Z,4.40
2018-07-14T14:05:35.506Z,4.20
2018-07-14T14:08:03.733Z,3.23
2018-07-14T14:10:31.945Z,2.83
2018-07-14T14:13:00.158Z,2.63
2018-07-14T14:15:28.373Z,3.10
2018-07-14T14:17:56.607Z,5.23
2018-07-14T14:20:24.818Z,3.10
2018-07-14T14:22:53.013Z,4.60
2018-07-14T14:25:21.238Z,3.03
2018-07-14T14:27:49.710Z,4.63
2018-07-14T14:30:17.994Z,3.60
2018-07-14T14:32:46.245Z,4.00
2018-07-14T14:35:14.462Z,8.33
2018-07-14T14:37:42.838Z,4.00
2018-07-14T14:40:11.017Z,4.33
2018-07-14T14:42:39.218Z,4.47
2018-07-14T14:45:07.734Z,4.23
2018-07-14T14:47:35.749Z,4.60
2018-07-14T14:50:04.016Z,5.00
2018-07-14T14:52:32.238Z,4.77
2018-07-14T14:55:00.517Z,7.50
2018-07-14T14:57:28.805Z,5.63
2018-07-14T14:59:57.125Z,5.57
2018-07-14T15:02:25.351Z,4.47
2018-07-14T15:04:53.487Z,8.60
2018-07-14T15:07:21.666Z,4.97
2018-07-14T15:09:49.942Z,5.10
2018-07-14T15:12:18.205Z,7.13
2018-07-14T15:14:46.432Z,5.13
2018-07-14T15:17:14.685Z,5.33
2018-07-14T15:19:42.925Z,6.73
2018-07-14T15:22:11.162Z,5.30
2018-07-14T15:24:39.112Z,6.80
2018-07-14T15:27:07.341Z,5.37
2018-07-14T15:29:35.564Z,6.13
2018-07-14T15:32:03.926Z,5.07
2018-07-14T15:34:32.203Z,4.97
2018-07-14T15:37:00.446Z,5.13
2018-07-14T15:39:28.641Z,5.80
2018-07-14T15:41:56.902Z,5.60
2018-07-14T15:44:25.158Z,5.80
2018-07-14T15:46:53.415Z,5.87
2018-07-14T15:49:21.365Z,5.73
2018-07-14T15:51:49.594Z,6.37
2018-07-14T15:54:17.968Z,12.30
2018-07-14T15:56:46.185Z,10.30
2018-07-14T15:59:14.413Z,18.43
2018-07-14T16:01:42.669Z,10.30
2018-07-14T16:04:10.899Z,12.40
2018-07-14T16:06:39.139Z,14.17
2018-07-14T16:09:07.689Z,12.07
2018-07-14T16:11:35.895Z,11.57
2018-07-14T16:14:04.109Z,17.03
2018-07-14T16:16:32.373Z,14.33
2018-07-14T16:19:00.727Z,12.93
2018-07-14T16:21:28.903Z,12.13
2018-07-14T16:23:57.158Z,15.50
2018-07-14T16:26:25.353Z,16.40
2018-07-14T16:28:53.570Z,15.90
2018-07-14T16:31:21.785Z,14.23
2018-07-14T16:33:50.030Z,13.10
2018-07-14T16:36:18.250Z,10.70
2018-07-14T16:38:46.666Z,11.47
2018-07-14T16:41:14.910Z,13.20
2018-07-14T16:43:43.446Z,11.97
2018-07-14T16:46:11.590Z,12.53
2018-07-14T16:48:39.852Z,14.77
2018-07-14T16:51:08.179Z,12.00
2018-07-14T16:53:36.185Z,10.60
2018-07-14T16:56:04.447Z,10.60
2018-07-14T16:58:32.712Z,10.30
2018-07-14T17:01:01.153Z,8.87
2018-07-14T17:03:29.357Z,8.50
2018-07-14T17:05:57.550Z,8.77
2018-07-14T17:08:25.724Z,8.60
2018-07-14T17:10:53.969Z,9.70
2018-07-14T17:13:22.190Z,9.90
2018-07-14T17:15:50.438Z,10.13
2018-07-14T17:18:18.397Z,10.43
2018-07-14T17:20:46.691Z,10.97
2018-07-14T17:23:15.029Z,10.47
2018-07-14T17:25:43.247Z,9.90
2018-07-14T17:28:11.437Z,10.17
2018-07-14T17:30:39.703Z,8.37
2018-07-14T17:33:07.910Z,10.60
2018-07-14T17:35:36.165Z,9.47
2018-07-14T17:38:04.405Z,10.07
2018-07-14T17:40:32.621Z,8.50
2018-07-14T17:43:00.840Z,10.60
2018-07-14T17:45:29.241Z,11.60
2018-07-14T17:47:57.534Z,11.63
2018-07-14T17:50:25.749Z,11.33
2018-07-14T17:52:54.007Z,10.57
2018-07-14T17:55:22.230Z,10.23
2018-07-14T17:57:50.450Z,9.80
2018-07-14T18:00:18.658Z,11.20
2018-07-14T18:02:46.853Z,10.30
2018-07-14T18:05:14.879Z,10.83
2018-07-14T18:07:43.074Z,11.77
2018-07-14T18:10:11.313Z,11.00
2018-07-14T18:12:39.530Z,11.07
2018-07-14T18:15:07.730Z,12.00
2018-07-14T18:17:35.950Z,11.77
2018-07-14T18:20:04.161Z,10.13
2018-07-14T18:22:32.390Z,12.13
2018-07-14T18:25:00.588Z,11.83
2018-07-14T18:27:28.840Z,12.47
2018-07-14T18:29:57.110Z,13.07
2018-07-14T18:32:25.334Z,12.20
2018-07-14T18:34:53.575Z,12.97
2018-07-14T18:37:21.890Z,12.30
2018-07-14T18:39:50.095Z,12.70
2018-07-14T18:42:18.322Z,12.80
2018-07-14T18:44:46.542Z,12.20
2018-07-14T18:47:14.773Z,14.13
2018-07-14T18:49:42.950Z,17.50
2018-07-14T18:52:11.451Z,14.27
2018-07-14T18:54:39.620Z,13.70
2018-07-14T18:57:08.665Z,13.60
2018-07-14T18:59:36.904Z,13.57
2018-07-14T19:02:05.129Z,14.37
2018-07-14T19:04:33.391Z,13.30
2018-07-14T19:07:01.625Z,13.07
2018-07-14T19:09:29.630Z,12.80
2018-07-14T19:11:57.796Z,12.50
2018-07-14T19:14:26.193Z,12.20
2018-07-14T19:16:54.425Z,13.50
2018-07-14T19:19:22.645Z,13.63
2018-07-14T19:21:50.877Z,14.23
2018-07-14T19:24:19.112Z,15.07
2018-07-14T19:26:47.333Z,14.27
2018-07-14T19:29:15.565Z,13.83
2018-07-14T19:31:43.762Z,15.70
2018-07-14T19:34:11.998Z,15.20
2018-07-14T19:36:40.459Z,14.80
2018-07-14T19:39:08.662Z,16.10
2018-07-14T19:41:36.858Z,15.73
2018-07-14T19:44:05.095Z,18.20
2018-07-14T19:46:33.313Z,17.27
2018-07-14T19:49:01.529Z,16.50
2018-07-14T19:51:29.720Z,15.97
2018-07-14T19:53:57.937Z,16.87
2018-07-14T19:56:26.187Z,16.40
2018-07-14T19:58:54.617Z,15.93
2018-07-14T20:01:22.823Z,16.63
2018-07-14T20:03:51.096Z,16.73
2018-07-14T20:06:19.501Z,19.03
2018-07-14T20:08:47.606Z,18.93
2018-07-14T20:11:15.835Z,18.73
2018-07-14T20:13:44.046Z,18.53
2018-07-14T20:16:12.240Z,16.10
2018-07-14T20:18:40.229Z,16.10
2018-07-14T20:21:08.442Z,16.77
2018-07-14T20:23:36.660Z,15.33
2018-07-14T20:26:05.024Z,15.80
2018-07-14T20:28:33.274Z,14.20
2018-07-14T20:31:01.565Z,15.43
2018-07-14T20:33:29.805Z,15.80
2018-07-14T20:35:58.002Z,15.53
2018-07-14T20:38:26.193Z,14.90
2018-07-14T20:40:54.429Z,15.27
2018-07-14T20:43:22.948Z,14.17
2018-07-14T20:45:51.166Z,14.30
2018-07-14T20:48:19.399Z,14.17
2018-07-14T20:50:47.614Z,15.43
2018-07-14T20:53:15.833Z,17.20
2018-07-14T20:55:44.080Z,15.33
2018-07-14T20:58:12.313Z,17.63
2018-07-14T21:00:40.533Z,16.57
2018-07-14T21:03:08.797Z,16.93
2018-07-14T21:05:37.161Z,16.73
2018-07-14T21:08:05.638Z,17.57
2018-07-14T21:10:33.889Z,20.00
2018-07-14T21:13:02.131Z,19.30
2018-07-14T21:15:30.373Z,15.67
2018-07-14T21:17:58.583Z,16.33
2018-07-14T21:20:26.813Z,17.50
2018-07-14T21:22:55.056Z,14.27
2018-07-14T21:25:23.281Z,15.93
2018-07-14T21:27:51.638Z,14.87
2018-07-14T21:30:19.893Z,15.30
2018-07-14T21:32:48.124Z,14.67
2018-07-14T21:35:16.334Z,13.67
2018-07-14T21:37:44.562Z,15.50
2018-07-14T21:40:12.845Z,15.70
2018-07-14T21:42:40.977Z,15.53
2018-07-14T21:45:09.202Z,16.63
2018-07-14T21:47:37.429Z,15.27
2018-07-14T21:50:05.652Z,14.97
2018-07-14T21:52:33.858Z,15.97
2018-07-14T21:55:02.155Z,16.53
2018-07-14T21:57:30.418Z,16.03
2018-07-14T21:59:58.634Z,15.80
2018-07-14T22:02:26.856Z,15.63
2018-07-14T22:04:55.061Z,15.60
2018-07-14T22:07:23.076Z,17.37
2018-07-14T22:09:51.245Z,19.40
2018-07-14T22:12:19.649Z,17.30
2018-07-14T22:14:47.878Z,15.97
2018-07-14T22:17:16.102Z,18.63
2018-07-14T22:19:44.350Z,18.10
2018-07-14T22:22:12.608Z,17.80
2018-07-14T22:24:40.819Z,19.50
2018-07-14T22:27:09.105Z,18.97
2018-07-14T22:29:37.352Z,21.63
2018-07-14T22:32:05.586Z,20.63
2018-07-14T22:34:33.867Z,18.23
2018-07-14T22:37:02.090Z,17.63
2018-07-14T22:39:30.321Z,18.80
2018-07-14T22:41:58.542Z,16.20
2018-07-14T22:44:26.757Z,17.30
2018-07-14T22:46:54.982Z,17.97
2018-07-14T22:49:23.198Z,18.07
2018-07-14T22:51:51.430Z,19.93
2018-07-14T22:54:19.632Z,18.87
2018-07-14T22:56:48.024Z,18.77
2018-07-14T22:59:16.234Z,18.97
2018-07-14T23:01:44.465Z,20.90
2018-07-14T23:04:12.659Z,20.60
2018-07-14T23:06:40.866Z,17.83
2018-07-14T23:09:09.100Z,16.53
2018-07-14T23:11:37.313Z,17.40
2018-07-14T23:14:05.539Z,17.37
2018-07-14T23:16:33.746Z,18.37
2018-07-14T23:19:01.769Z,17.80
2018-07-14T23:21:29.991Z,18.03
2018-07-14T23:23:58.250Z,17.60
2018-07-14T23:26:26.466Z,18.10
2018-07-14T23:28:54.706Z,19.17
2018-07-14T23:31:22.914Z,19.37
2018-07-14T23:33:51.138Z,19.30
2018-07-14T23:36:19.355Z,20.00
2018-07-14T23:38:47.569Z,21.03
2018-07-14T23:41:16.116Z,22.87
2018-07-14T23:43:44.394Z,21.53
2018-07-14T23:46:12.338Z,22.10
2018-07-14T23:48:40.557Z,20.83
2018-07-14T23:51:08.786Z,22.03
2018-07-14T23:53:37.010Z,23.33
2018-07-14T23:56:05.440Z,23.47
2018-07-14T23:58:33.641Z,23.13
